sensor_id;sensor_type;location;lat;lon;timestamp;P1;durP1;ratioP1;P2;durP2;ratioP2
81229;SDS011;70701;44.452;18.652;2023-10-09T00:00:14;1.55;;;0.85;;
81229;SDS011;70701;44.452;18.652;2023-10-09T00:03:00;4.75;;;0.95;;
81229;SDS011;70701;44.452;18.652;2023-10-09T00:05:26;2.03;;;1.00;;
81229;SDS011;70701;44.452;18.652;2023-10-09T00:08:14;2.47;;;1.23;;
81229;SDS011;70701;44.452;18.652;2023-10-09T00:10:50;2.83;;;1.40;;
81229;SDS011;70701;44.452;18.652;2023-10-09T00:13:23;3.83;;;1.10;;
81229;SDS011;70701;44.452;18.652;2023-10-09T00:16:03;2.33;;;1.02;;
81229;SDS011;70701;44.452;18.652;2023-10-09T00:18:38;2.00;;;0.90;;
81229;SDS011;70701;44.452;18.652;2023-10-09T00:21:05;2.97;;;0.88;;
81229;SDS011;70701;44.452;18.652;2023-10-09T00:23:37;3.78;;;1.10;;
81229;SDS011;70701;44.452;18.652;2023-10-09T00:26:06;2.13;;;1.00;;
81229;SDS011;70701;44.452;18.652;2023-10-09T00:28:58;3.38;;;0.73;;
81229;SDS011;70701;44.452;18.652;2023-10-09T00:31:24;3.28;;;1.08;;
81229;SDS011;70701;44.452;18.652;2023-10-09T00:33:58;3.75;;;1.20;;
81229;SDS011;70701;44.452;18.652;2023-10-09T00:36:44;4.43;;;1.30;;
81229;SDS011;70701;44.452;18.652;2023-10-09T00:39:17;2.22;;;0.93;;
81229;SDS011;70701;44.452;18.652;2023-10-09T00:42:04;2.97;;;1.10;;
81229;SDS011;70701;44.452;18.652;2023-10-09T00:44:33;1.67;;;0.93;;
81229;SDS011;70701;44.452;18.652;2023-10-09T00:47:06;1.83;;;1.00;;
81229;SDS011;70701;44.452;18.652;2023-10-09T00:52:39;2.92;;;0.85;;
81229;SDS011;70701;44.452;18.652;2023-10-09T00:55:15;3.67;;;1.00;;
81229;SDS011;70701;44.452;18.652;2023-10-09T00:58:01;3.17;;;1.10;;
81229;SDS011;70701;44.452;18.652;2023-10-09T01:00:30;3.42;;;1.15;;
81229;SDS011;70701;44.452;18.652;2023-10-09T01:03:15;3.78;;;1.02;;
81229;SDS011;70701;44.452;18.652;2023-10-09T01:05:41;3.38;;;1.00;;
81229;SDS011;70701;44.452;18.652;2023-10-09T01:08:22;2.80;;;1.17;;
81229;SDS011;70701;44.452;18.652;2023-10-09T01:10:56;2.75;;;1.17;;
81229;SDS011;70701;44.452;18.652;2023-10-09T01:13:25;3.50;;;1.30;;
81229;SDS011;70701;44.452;18.652;2023-10-09T01:16:08;1.98;;;1.00;;
81229;SDS011;70701;44.452;18.652;2023-10-09T01:18:41;3.17;;;1.05;;
81229;SDS011;70701;44.452;18.652;2023-10-09T01:21:08;3.97;;;1.38;;
81229;SDS011;70701;44.452;18.652;2023-10-09T01:23:40;3.92;;;1.38;;
81229;SDS011;70701;44.452;18.652;2023-10-09T01:26:24;5.35;;;1.90;;
81229;SDS011;70701;44.452;18.652;2023-10-09T01:28:51;3.33;;;1.35;;
81229;SDS011;70701;44.452;18.652;2023-10-09T01:31:23;1.92;;;1.00;;
81229;SDS011;70701;44.452;18.652;2023-10-09T01:33:52;3.70;;;1.20;;
81229;SDS011;70701;44.452;18.652;2023-10-09T01:36:25;4.13;;;1.40;;
81229;SDS011;70701;44.452;18.652;2023-10-09T01:39:00;3.33;;;1.23;;
81229;SDS011;70701;44.452;18.652;2023-10-09T01:41:34;2.65;;;1.50;;
81229;SDS011;70701;44.452;18.652;2023-10-09T01:44:03;2.30;;;1.30;;
81229;SDS011;70701;44.452;18.652;2023-10-09T01:46:35;3.53;;;1.50;;
81229;SDS011;70701;44.452;18.652;2023-10-09T01:49:01;3.78;;;1.60;;
81229;SDS011;70701;44.452;18.652;2023-10-09T01:51:33;5.43;;;1.65;;
81229;SDS011;70701;44.452;18.652;2023-10-09T01:54:02;3.10;;;1.45;;
81229;SDS011;70701;44.452;18.652;2023-10-09T01:56:28;2.90;;;1.45;;
81229;SDS011;70701;44.452;18.652;2023-10-09T01:58:53;2.80;;;1.17;;
81229;SDS011;70701;44.452;18.652;2023-10-09T02:01:22;2.67;;;1.05;;
81229;SDS011;70701;44.452;18.652;2023-10-09T02:03:49;3.30;;;0.90;;
81229;SDS011;70701;44.452;18.652;2023-10-09T02:06:17;4.55;;;1.10;;
81229;SDS011;70701;44.452;18.652;2023-10-09T02:08:57;4.03;;;1.40;;
81229;SDS011;70701;44.452;18.652;2023-10-09T02:11:24;4.90;;;1.30;;
81229;SDS011;70701;44.452;18.652;2023-10-09T02:14:05;3.25;;;1.20;;
81229;SDS011;70701;44.452;18.652;2023-10-09T02:16:44;6.37;;;1.87;;
81229;SDS011;70701;44.452;18.652;2023-10-09T02:19:27;2.43;;;1.30;;
81229;SDS011;70701;44.452;18.652;2023-10-09T02:22:07;3.47;;;1.77;;
81229;SDS011;70701;44.452;18.652;2023-10-09T02:24:40;5.43;;;1.50;;
81229;SDS011;70701;44.452;18.652;2023-10-09T02:27:17;4.40;;;1.60;;
81229;SDS011;70701;44.452;18.652;2023-10-09T02:30:06;2.23;;;1.30;;
81229;SDS011;70701;44.452;18.652;2023-10-09T02:32:43;3.90;;;1.80;;
81229;SDS011;70701;44.452;18.652;2023-10-09T02:35:13;4.00;;;1.90;;
81229;SDS011;70701;44.452;18.652;2023-10-09T02:38:04;3.77;;;2.00;;
81229;SDS011;70701;44.452;18.652;2023-10-09T02:40:35;5.83;;;2.43;;
81229;SDS011;70701;44.452;18.652;2023-10-09T02:43:27;5.20;;;2.33;;
81229;SDS011;70701;44.452;18.652;2023-10-09T02:45:59;4.23;;;1.90;;
81229;SDS011;70701;44.452;18.652;2023-10-09T02:48:39;6.53;;;2.20;;
81229;SDS011;70701;44.452;18.652;2023-10-09T02:51:10;4.97;;;2.33;;
81229;SDS011;70701;44.452;18.652;2023-10-09T02:53:57;3.97;;;1.70;;
81229;SDS011;70701;44.452;18.652;2023-10-09T02:56:27;4.93;;;1.73;;
81229;SDS011;70701;44.452;18.652;2023-10-09T02:59:05;3.43;;;1.90;;
81229;SDS011;70701;44.452;18.652;2023-10-09T03:01:31;4.33;;;1.80;;
81229;SDS011;70701;44.452;18.652;2023-10-09T03:03:59;6.27;;;2.10;;
81229;SDS011;70701;44.452;18.652;2023-10-09T03:06:28;4.63;;;2.00;;
81229;SDS011;70701;44.452;18.652;2023-10-09T03:08:59;7.03;;;2.10;;
81229;SDS011;70701;44.452;18.652;2023-10-09T03:11:26;6.90;;;2.30;;
81229;SDS011;70701;44.452;18.652;2023-10-09T03:13:52;5.00;;;2.00;;
81229;SDS011;70701;44.452;18.652;2023-10-09T03:16:18;6.83;;;2.07;;
81229;SDS011;70701;44.452;18.652;2023-10-09T03:18:45;5.60;;;2.63;;
81229;SDS011;70701;44.452;18.652;2023-10-09T03:21:12;6.67;;;2.10;;
81229;SDS011;70701;44.452;18.652;2023-10-09T03:23:39;6.63;;;2.50;;
81229;SDS011;70701;44.452;18.652;2023-10-09T03:26:09;10.33;;;2.77;;
81229;SDS011;70701;44.452;18.652;2023-10-09T03:28:36;8.87;;;3.33;;
81229;SDS011;70701;44.452;18.652;2023-10-09T03:31:01;5.57;;;1.80;;
81229;SDS011;70701;44.452;18.652;2023-10-09T03:33:31;3.03;;;1.57;;
81229;SDS011;70701;44.452;18.652;2023-10-09T03:35:59;5.43;;;2.57;;
81229;SDS011;70701;44.452;18.652;2023-10-09T03:38:25;5.07;;;2.10;;
81229;SDS011;70701;44.452;18.652;2023-10-09T03:40:54;4.53;;;1.60;;
81229;SDS011;70701;44.452;18.652;2023-10-09T03:43:20;4.53;;;1.90;;
81229;SDS011;70701;44.452;18.652;2023-10-09T03:45:46;5.30;;;1.60;;
81229;SDS011;70701;44.452;18.652;2023-10-09T03:48:18;30.23;;;14.17;;
81229;SDS011;70701;44.452;18.652;2023-10-09T03:50:51;26.08;;;14.55;;
81229;SDS011;70701;44.452;18.652;2023-10-09T03:53:33;16.63;;;8.20;;
81229;SDS011;70701;44.452;18.652;2023-10-09T03:56:01;12.23;;;5.70;;
81229;SDS011;70701;44.452;18.652;2023-10-09T03:58:37;12.63;;;4.77;;
81229;SDS011;70701;44.452;18.652;2023-10-09T04:01:11;15.50;;;4.33;;
81229;SDS011;70701;44.452;18.652;2023-10-09T04:03:47;9.43;;;3.60;;
81229;SDS011;70701;44.452;18.652;2023-10-09T04:06:12;8.47;;;4.70;;
81229;SDS011;70701;44.452;18.652;2023-10-09T04:08:38;7.33;;;3.53;;
81229;SDS011;70701;44.452;18.652;2023-10-09T04:11:12;10.43;;;3.70;;
81229;SDS011;70701;44.452;18.652;2023-10-09T04:13:43;5.63;;;2.83;;
81229;SDS011;70701;44.452;18.652;2023-10-09T04:16:14;6.93;;;3.20;;
81229;SDS011;70701;44.452;18.652;2023-10-09T04:19:05;8.00;;;3.30;;
81229;SDS011;70701;44.452;18.652;2023-10-09T04:21:36;9.60;;;5.30;;
81229;SDS011;70701;44.452;18.652;2023-10-09T04:24:03;8.40;;;3.20;;
81229;SDS011;70701;44.452;18.652;2023-10-09T04:26:35;6.03;;;2.87;;
81229;SDS011;70701;44.452;18.652;2023-10-09T04:29:02;5.50;;;2.70;;
81229;SDS011;70701;44.452;18.652;2023-10-09T04:31:29;6.97;;;2.53;;
81229;SDS011;70701;44.452;18.652;2023-10-09T04:33:59;4.33;;;2.00;;
81229;SDS011;70701;44.452;18.652;2023-10-09T04:36:51;6.23;;;2.50;;
81229;SDS011;70701;44.452;18.652;2023-10-09T04:39:22;6.37;;;2.67;;
81229;SDS011;70701;44.452;18.652;2023-10-09T04:42:11;7.37;;;3.53;;
81229;SDS011;70701;44.452;18.652;2023-10-09T04:45:02;9.27;;;4.60;;
81229;SDS011;70701;44.452;18.652;2023-10-09T04:47:28;9.53;;;4.13;;
81229;SDS011;70701;44.452;18.652;2023-10-09T04:50:02;8.90;;;3.93;;
81229;SDS011;70701;44.452;18.652;2023-10-09T04:52:33;7.40;;;3.00;;
81229;SDS011;70701;44.452;18.652;2023-10-09T04:54:59;13.60;;;3.90;;
81229;SDS011;70701;44.452;18.652;2023-10-09T05:00:23;6.67;;;3.57;;
81229;SDS011;70701;44.452;18.652;2023-10-09T05:02:53;10.87;;;3.90;;
81229;SDS011;70701;44.452;18.652;2023-10-09T05:05:22;11.90;;;4.17;;
81229;SDS011;70701;44.452;18.652;2023-10-09T05:08:10;10.47;;;5.40;;
81229;SDS011;70701;44.452;18.652;2023-10-09T05:10:46;15.87;;;4.80;;
81229;SDS011;70701;44.452;18.652;2023-10-09T05:13:28;9.77;;;3.87;;
81229;SDS011;70701;44.452;18.652;2023-10-09T05:16:04;7.30;;;4.23;;
81229;SDS011;70701;44.452;18.652;2023-10-09T05:18:51;10.77;;;4.10;;
81229;SDS011;70701;44.452;18.652;2023-10-09T05:21:22;9.37;;;4.33;;
81229;SDS011;70701;44.452;18.652;2023-10-09T05:23:57;12.87;;;4.30;;
81229;SDS011;70701;44.452;18.652;2023-10-09T05:26:38;13.37;;;4.47;;
81229;SDS011;70701;44.452;18.652;2023-10-09T05:31:58;10.63;;;3.83;;
81229;SDS011;70701;44.452;18.652;2023-10-09T05:34:42;13.07;;;4.47;;
81229;SDS011;70701;44.452;18.652;2023-10-09T05:37:27;10.53;;;5.60;;
81229;SDS011;70701;44.452;18.652;2023-10-09T05:39:58;10.48;;;4.53;;
81229;SDS011;70701;44.452;18.652;2023-10-09T05:42:34;9.60;;;4.77;;
81229;SDS011;70701;44.452;18.652;2023-10-09T05:45:07;17.10;;;5.07;;
81229;SDS011;70701;44.452;18.652;2023-10-09T05:47:44;9.63;;;4.80;;
81229;SDS011;70701;44.452;18.652;2023-10-09T05:50:31;11.10;;;5.10;;
81229;SDS011;70701;44.452;18.652;2023-10-09T05:53:03;10.93;;;6.03;;
81229;SDS011;70701;44.452;18.652;2023-10-09T05:55:34;11.57;;;4.50;;
81229;SDS011;70701;44.452;18.652;2023-10-09T06:01:02;7.47;;;2.70;;
81229;SDS011;70701;44.452;18.652;2023-10-09T06:03:31;14.50;;;3.60;;
81229;SDS011;70701;44.452;18.652;2023-10-09T06:06:19;7.63;;;3.23;;
81229;SDS011;70701;44.452;18.652;2023-10-09T06:09:08;8.13;;;3.13;;
81229;SDS011;70701;44.452;18.652;2023-10-09T06:14:07;6.17;;;3.10;;
81229;SDS011;70701;44.452;18.652;2023-10-09T06:16:33;5.67;;;2.93;;
81229;SDS011;70701;44.452;18.652;2023-10-09T06:19:25;8.83;;;4.90;;
81229;SDS011;70701;44.452;18.652;2023-10-09T06:21:53;5.37;;;2.83;;
81229;SDS011;70701;44.452;18.652;2023-10-09T06:24:29;9.57;;;5.17;;
81229;SDS011;70701;44.452;18.652;2023-10-09T06:27:06;15.37;;;8.43;;
81229;SDS011;70701;44.452;18.652;2023-10-09T06:29:35;7.53;;;3.23;;
81229;SDS011;70701;44.452;18.652;2023-10-09T06:32:16;8.53;;;4.93;;
81229;SDS011;70701;44.452;18.652;2023-10-09T06:34:58;10.60;;;5.27;;
81229;SDS011;70701;44.452;18.652;2023-10-09T06:37:47;9.27;;;4.03;;
81229;SDS011;70701;44.452;18.652;2023-10-09T06:40:26;7.55;;;3.72;;
81229;SDS011;70701;44.452;18.652;2023-10-09T06:43:14;6.37;;;3.10;;
81229;SDS011;70701;44.452;18.652;2023-10-09T06:45:46;8.45;;;4.40;;
81229;SDS011;70701;44.452;18.652;2023-10-09T06:48:20;8.67;;;3.97;;
81229;SDS011;70701;44.452;18.652;2023-10-09T06:51:02;16.10;;;8.43;;
81229;SDS011;70701;44.452;18.652;2023-10-09T06:58:56;10.73;;;6.38;;
81229;SDS011;70701;44.452;18.652;2023-10-09T07:01:27;13.75;;;8.68;;
81229;SDS011;70701;44.452;18.652;2023-10-09T07:03:53;8.48;;;4.15;;
81229;SDS011;70701;44.452;18.652;2023-10-09T07:06:19;6.13;;;2.70;;
81229;SDS011;70701;44.452;18.652;2023-10-09T07:08:55;7.18;;;3.92;;
81229;SDS011;70701;44.452;18.652;2023-10-09T07:11:46;5.88;;;3.10;;
81229;SDS011;70701;44.452;18.652;2023-10-09T07:14:18;9.20;;;4.00;;
81229;SDS011;70701;44.452;18.652;2023-10-09T07:17:06;7.53;;;3.03;;
81229;SDS011;70701;44.452;18.652;2023-10-09T07:19:52;4.78;;;2.65;;
81229;SDS011;70701;44.452;18.652;2023-10-09T07:22:18;6.82;;;3.03;;
81229;SDS011;70701;44.452;18.652;2023-10-09T07:24:47;6.78;;;3.60;;
81229;SDS011;70701;44.452;18.652;2023-10-09T07:27:22;6.55;;;2.95;;
81229;SDS011;70701;44.452;18.652;2023-10-09T07:30:08;8.43;;;3.80;;
81229;SDS011;70701;44.452;18.652;2023-10-09T07:32:55;8.48;;;3.53;;
81229;SDS011;70701;44.452;18.652;2023-10-09T07:35:42;9.25;;;4.53;;
81229;SDS011;70701;44.452;18.652;2023-10-09T07:40:51;5.57;;;3.65;;
81229;SDS011;70701;44.452;18.652;2023-10-09T07:43:38;6.15;;;3.30;;
81229;SDS011;70701;44.452;18.652;2023-10-09T07:46:05;10.80;;;4.30;;
81229;SDS011;70701;44.452;18.652;2023-10-09T07:48:58;9.18;;;4.40;;
81229;SDS011;70701;44.452;18.652;2023-10-09T07:51:39;8.38;;;3.90;;
81229;SDS011;70701;44.452;18.652;2023-10-09T07:54:09;8.27;;;3.33;;
81229;SDS011;70701;44.452;18.652;2023-10-09T07:56:42;7.80;;;4.20;;
81229;SDS011;70701;44.452;18.652;2023-10-09T07:59:11;7.28;;;3.70;;
81229;SDS011;70701;44.452;18.652;2023-10-09T08:01:42;7.32;;;3.28;;
81229;SDS011;70701;44.452;18.652;2023-10-09T08:04:23;6.35;;;3.55;;
81229;SDS011;70701;44.452;18.652;2023-10-09T08:07:08;7.15;;;3.13;;
81229;SDS011;70701;44.452;18.652;2023-10-09T08:09:35;9.52;;;4.38;;
81229;SDS011;70701;44.452;18.652;2023-10-09T08:12:11;6.03;;;2.78;;
81229;SDS011;70701;44.452;18.652;2023-10-09T08:14:41;7.07;;;3.40;;
81229;SDS011;70701;44.452;18.652;2023-10-09T08:17:08;6.05;;;2.60;;
81229;SDS011;70701;44.452;18.652;2023-10-09T08:19:39;5.07;;;2.35;;
81229;SDS011;70701;44.452;18.652;2023-10-09T08:24:50;6.28;;;2.67;;
81229;SDS011;70701;44.452;18.652;2023-10-09T08:27:26;6.38;;;2.47;;
81229;SDS011;70701;44.452;18.652;2023-10-09T08:30:05;6.63;;;2.47;;
81229;SDS011;70701;44.452;18.652;2023-10-09T08:32:47;4.85;;;2.45;;
81229;SDS011;70701;44.452;18.652;2023-10-09T08:35:34;9.55;;;4.20;;
81229;SDS011;70701;44.452;18.652;2023-10-09T08:38:12;6.10;;;3.20;;
81229;SDS011;70701;44.452;18.652;2023-10-09T08:40:39;4.65;;;2.47;;
81229;SDS011;70701;44.452;18.652;2023-10-09T08:43:10;5.57;;;2.40;;
81229;SDS011;70701;44.452;18.652;2023-10-09T08:45:40;6.97;;;2.70;;
81229;SDS011;70701;44.452;18.652;2023-10-09T08:48:10;5.10;;;2.72;;
81229;SDS011;70701;44.452;18.652;2023-10-09T08:50:51;4.60;;;2.22;;
81229;SDS011;70701;44.452;18.652;2023-10-09T08:53:22;5.95;;;3.15;;
81229;SDS011;70701;44.452;18.652;2023-10-09T08:55:57;6.13;;;2.40;;
81229;SDS011;70701;44.452;18.652;2023-10-09T08:58:23;7.32;;;3.10;;
81229;SDS011;70701;44.452;18.652;2023-10-09T09:01:00;5.93;;;2.67;;
81229;SDS011;70701;44.452;18.652;2023-10-09T09:03:26;5.57;;;2.50;;
81229;SDS011;70701;44.452;18.652;2023-10-09T09:05:58;10.40;;;3.22;;
81229;SDS011;70701;44.452;18.652;2023-10-09T09:08:31;5.03;;;2.90;;
81229;SDS011;70701;44.452;18.652;2023-10-09T09:11:11;12.13;;;4.70;;
81229;SDS011;70701;44.452;18.652;2023-10-09T09:14:09;7.65;;;3.00;;
81229;SDS011;70701;44.452;18.652;2023-10-09T09:16:44;5.32;;;2.38;;
81229;SDS011;70701;44.452;18.652;2023-10-09T09:19:13;6.03;;;2.38;;
81229;SDS011;70701;44.452;18.652;2023-10-09T09:22:07;9.05;;;3.70;;
81229;SDS011;70701;44.452;18.652;2023-10-09T09:24:38;10.50;;;4.38;;
81229;SDS011;70701;44.452;18.652;2023-10-09T09:27:11;5.65;;;2.90;;
81229;SDS011;70701;44.452;18.652;2023-10-09T09:29:46;5.88;;;2.97;;
81229;SDS011;70701;44.452;18.652;2023-10-09T09:32:26;8.43;;;2.83;;
81229;SDS011;70701;44.452;18.652;2023-10-09T09:35:01;4.85;;;2.67;;
81229;SDS011;70701;44.452;18.652;2023-10-09T09:37:30;11.18;;;3.72;;
81229;SDS011;70701;44.452;18.652;2023-10-09T09:40:15;8.20;;;4.28;;
81229;SDS011;70701;44.452;18.652;2023-10-09T09:42:55;7.63;;;4.15;;
81229;SDS011;70701;44.452;18.652;2023-10-09T09:45:31;8.45;;;4.00;;
81229;SDS011;70701;44.452;18.652;2023-10-09T09:47:59;7.07;;;3.75;;
81229;SDS011;70701;44.452;18.652;2023-10-09T09:50:31;5.35;;;2.90;;
81229;SDS011;70701;44.452;18.652;2023-10-09T09:52:58;7.20;;;3.72;;
81229;SDS011;70701;44.452;18.652;2023-10-09T09:55:26;7.38;;;2.67;;
81229;SDS011;70701;44.452;18.652;2023-10-09T09:57:58;9.68;;;3.58;;
81229;SDS011;70701;44.452;18.652;2023-10-09T10:00:28;7.38;;;4.60;;
81229;SDS011;70701;44.452;18.652;2023-10-09T10:03:22;8.38;;;2.78;;
81229;SDS011;70701;44.452;18.652;2023-10-09T10:05:51;5.55;;;2.92;;
81229;SDS011;70701;44.452;18.652;2023-10-09T10:08:22;8.45;;;3.53;;
81229;SDS011;70701;44.452;18.652;2023-10-09T10:10:56;7.93;;;3.45;;
81229;SDS011;70701;44.452;18.652;2023-10-09T10:16:15;5.75;;;3.30;;
81229;SDS011;70701;44.452;18.652;2023-10-09T10:18:56;6.85;;;3.30;;
81229;SDS011;70701;44.452;18.652;2023-10-09T10:21:35;7.68;;;3.47;;
81229;SDS011;70701;44.452;18.652;2023-10-09T10:29:46;7.05;;;3.20;;
81229;SDS011;70701;44.452;18.652;2023-10-09T10:32:15;6.13;;;3.45;;
81229;SDS011;70701;44.452;18.652;2023-10-09T10:37:13;7.05;;;3.05;;
81229;SDS011;70701;44.452;18.652;2023-10-09T10:39:49;6.75;;;3.28;;
81229;SDS011;70701;44.452;18.652;2023-10-09T10:42:16;6.65;;;3.05;;
81229;SDS011;70701;44.452;18.652;2023-10-09T10:45:17;8.45;;;3.80;;
81229;SDS011;70701;44.452;18.652;2023-10-09T10:48:04;9.25;;;3.28;;
81229;SDS011;70701;44.452;18.652;2023-10-09T10:50:35;7.57;;;3.33;;
81229;SDS011;70701;44.452;18.652;2023-10-09T10:53:34;7.18;;;3.17;;
81229;SDS011;70701;44.452;18.652;2023-10-09T10:56:02;7.05;;;2.92;;
81229;SDS011;70701;44.452;18.652;2023-10-09T10:58:42;5.55;;;2.78;;
81229;SDS011;70701;44.452;18.652;2023-10-09T11:01:37;7.40;;;4.20;;
81229;SDS011;70701;44.452;18.652;2023-10-09T11:04:25;7.93;;;3.40;;
81229;SDS011;70701;44.452;18.652;2023-10-09T11:07:01;5.10;;;2.85;;
81229;SDS011;70701;44.452;18.652;2023-10-09T11:09:46;5.90;;;2.92;;
81229;SDS011;70701;44.452;18.652;2023-10-09T11:15:29;6.05;;;2.70;;
81229;SDS011;70701;44.452;18.652;2023-10-09T11:18:09;4.85;;;2.42;;
81229;SDS011;70701;44.452;18.652;2023-10-09T11:20:45;7.32;;;3.40;;
81229;SDS011;70701;44.452;18.652;2023-10-09T11:23:46;6.53;;;2.72;;
81229;SDS011;70701;44.452;18.652;2023-10-09T11:26:23;7.22;;;3.20;;
81229;SDS011;70701;44.452;18.652;2023-10-09T11:34:30;49.13;;;28.23;;
81229;SDS011;70701;44.452;18.652;2023-10-09T11:37:12;19.02;;;10.63;;
81229;SDS011;70701;44.452;18.652;2023-10-09T11:39:40;9.65;;;4.88;;
81229;SDS011;70701;44.452;18.652;2023-10-09T11:42:19;11.43;;;6.18;;
81229;SDS011;70701;44.452;18.652;2023-10-09T11:45:02;9.90;;;4.55;;
81229;SDS011;70701;44.452;18.652;2023-10-09T11:47:45;7.82;;;3.75;;
81229;SDS011;70701;44.452;18.652;2023-10-09T11:53:55;8.27;;;3.20;;
81229;SDS011;70701;44.452;18.652;2023-10-09T11:56:25;7.50;;;3.45;;
81229;SDS011;70701;44.452;18.652;2023-10-09T11:58:53;5.85;;;2.90;;
81229;SDS011;70701;44.452;18.652;2023-10-09T12:01:19;7.88;;;3.85;;
81229;SDS011;70701;44.452;18.652;2023-10-09T12:03:47;6.47;;;3.30;;
81229;SDS011;70701;44.452;18.652;2023-10-09T12:06:23;8.52;;;3.58;;
81229;SDS011;70701;44.452;18.652;2023-10-09T12:09:10;7.68;;;3.20;;
81229;SDS011;70701;44.452;18.652;2023-10-09T12:11:42;7.28;;;3.42;;
81229;SDS011;70701;44.452;18.652;2023-10-09T12:14:08;7.35;;;3.22;;
81229;SDS011;70701;44.452;18.652;2023-10-09T12:16:36;7.45;;;3.92;;
81229;SDS011;70701;44.452;18.652;2023-10-09T12:19:15;8.55;;;3.72;;
81229;SDS011;70701;44.452;18.652;2023-10-09T12:21:40;7.45;;;3.50;;
81229;SDS011;70701;44.452;18.652;2023-10-09T12:24:08;8.02;;;3.00;;
81229;SDS011;70701;44.452;18.652;2023-10-09T12:26:37;8.95;;;2.95;;
81229;SDS011;70701;44.452;18.652;2023-10-09T12:29:07;6.68;;;3.03;;
81229;SDS011;70701;44.452;18.652;2023-10-09T12:31:36;6.13;;;2.90;;
81229;SDS011;70701;44.452;18.652;2023-10-09T12:34:02;23.10;;;15.38;;
81229;SDS011;70701;44.452;18.652;2023-10-09T12:36:28;25.77;;;17.17;;
81229;SDS011;70701;44.452;18.652;2023-10-09T12:38:54;25.90;;;17.70;;
81229;SDS011;70701;44.452;18.652;2023-10-09T12:41:23;24.38;;;14.13;;
81229;SDS011;70701;44.452;18.652;2023-10-09T12:43:53;22.25;;;15.50;;
81229;SDS011;70701;44.452;18.652;2023-10-09T12:46:20;17.80;;;10.68;;
81229;SDS011;70701;44.452;18.652;2023-10-09T12:48:53;13.95;;;9.13;;
81229;SDS011;70701;44.452;18.652;2023-10-09T12:51:26;11.13;;;5.57;;
81229;SDS011;70701;44.452;18.652;2023-10-09T12:53:57;9.73;;;5.28;;
81229;SDS011;70701;44.452;18.652;2023-10-09T12:56:23;10.50;;;4.75;;
81229;SDS011;70701;44.452;18.652;2023-10-09T12:58:58;9.35;;;4.13;;
81229;SDS011;70701;44.452;18.652;2023-10-09T13:01:30;8.88;;;4.25;;
81229;SDS011;70701;44.452;18.652;2023-10-09T13:04:09;8.43;;;4.00;;
81229;SDS011;70701;44.452;18.652;2023-10-09T13:06:43;6.13;;;3.58;;
81229;SDS011;70701;44.452;18.652;2023-10-09T13:09:12;8.93;;;3.70;;
81229;SDS011;70701;44.452;18.652;2023-10-09T13:11:40;6.88;;;3.38;;
81229;SDS011;70701;44.452;18.652;2023-10-09T13:14:09;6.25;;;3.42;;
81229;SDS011;70701;44.452;18.652;2023-10-09T13:19:18;8.77;;;3.38;;
81229;SDS011;70701;44.452;18.652;2023-10-09T13:21:44;8.35;;;3.00;;
81229;SDS011;70701;44.452;18.652;2023-10-09T13:24:10;6.90;;;3.45;;
81229;SDS011;70701;44.452;18.652;2023-10-09T13:26:44;14.50;;;9.80;;
81229;SDS011;70701;44.452;18.652;2023-10-09T13:29:11;23.85;;;15.18;;
81229;SDS011;70701;44.452;18.652;2023-10-09T13:31:38;28.80;;;17.02;;
81229;SDS011;70701;44.452;18.652;2023-10-09T13:34:05;27.00;;;17.02;;
81229;SDS011;70701;44.452;18.652;2023-10-09T13:36:32;19.33;;;11.75;;
81229;SDS011;70701;44.452;18.652;2023-10-09T13:39:04;18.85;;;10.48;;
81229;SDS011;70701;44.452;18.652;2023-10-09T13:41:52;11.90;;;7.25;;
81229;SDS011;70701;44.452;18.652;2023-10-09T13:46:55;11.90;;;5.75;;
81229;SDS011;70701;44.452;18.652;2023-10-09T13:49:22;9.40;;;5.05;;
81229;SDS011;70701;44.452;18.652;2023-10-09T13:51:49;12.25;;;6.80;;
81229;SDS011;70701;44.452;18.652;2023-10-09T13:54:16;18.17;;;9.40;;
81229;SDS011;70701;44.452;18.652;2023-10-09T13:57:05;7.97;;;3.60;;
81229;SDS011;70701;44.452;18.652;2023-10-09T13:59:35;7.25;;;3.92;;
81229;SDS011;70701;44.452;18.652;2023-10-09T14:02:02;8.82;;;3.95;;
81229;SDS011;70701;44.452;18.652;2023-10-09T14:04:34;10.23;;;5.00;;
81229;SDS011;70701;44.452;18.652;2023-10-09T14:07:01;10.32;;;5.32;;
81229;SDS011;70701;44.452;18.652;2023-10-09T14:09:30;13.70;;;6.07;;
81229;SDS011;70701;44.452;18.652;2023-10-09T14:11:57;8.65;;;5.07;;
81229;SDS011;70701;44.452;18.652;2023-10-09T14:14:36;11.63;;;6.43;;
81229;SDS011;70701;44.452;18.652;2023-10-09T14:17:12;8.93;;;4.10;;
81229;SDS011;70701;44.452;18.652;2023-10-09T14:19:56;11.38;;;4.65;;
81229;SDS011;70701;44.452;18.652;2023-10-09T14:22:41;8.40;;;4.00;;
81229;SDS011;70701;44.452;18.652;2023-10-09T14:25:06;12.68;;;4.43;;
81229;SDS011;70701;44.452;18.652;2023-10-09T14:27:40;20.98;;;12.88;;
81229;SDS011;70701;44.452;18.652;2023-10-09T14:30:06;54.13;;;36.25;;
81229;SDS011;70701;44.452;18.652;2023-10-09T14:32:38;44.08;;;29.67;;
81229;SDS011;70701;44.452;18.652;2023-10-09T14:35:13;41.88;;;26.92;;
81229;SDS011;70701;44.452;18.652;2023-10-09T14:37:39;58.28;;;38.75;;
81229;SDS011;70701;44.452;18.652;2023-10-09T14:40:05;62.10;;;41.55;;
81229;SDS011;70701;44.452;18.652;2023-10-09T14:42:38;22.73;;;14.07;;
81229;SDS011;70701;44.452;18.652;2023-10-09T14:45:10;11.85;;;7.35;;
81229;SDS011;70701;44.452;18.652;2023-10-09T14:47:41;8.90;;;5.28;;
81229;SDS011;70701;44.452;18.652;2023-10-09T14:50:12;10.05;;;4.30;;
81229;SDS011;70701;44.452;18.652;2023-10-09T14:52:39;10.50;;;4.32;;
81229;SDS011;70701;44.452;18.652;2023-10-09T14:55:05;8.63;;;3.80;;
81229;SDS011;70701;44.452;18.652;2023-10-09T14:57:31;12.07;;;5.50;;
81229;SDS011;70701;44.452;18.652;2023-10-09T15:00:00;12.77;;;4.95;;
81229;SDS011;70701;44.452;18.652;2023-10-09T15:02:32;10.75;;;4.18;;
81229;SDS011;70701;44.452;18.652;2023-10-09T15:04:57;13.27;;;5.00;;
81229;SDS011;70701;44.452;18.652;2023-10-09T15:07:23;8.10;;;4.72;;
81229;SDS011;70701;44.452;18.652;2023-10-09T15:09:49;13.55;;;4.95;;
81229;SDS011;70701;44.452;18.652;2023-10-09T15:12:16;17.92;;;7.63;;
81229;SDS011;70701;44.452;18.652;2023-10-09T15:14:41;10.63;;;5.45;;
81229;SDS011;70701;44.452;18.652;2023-10-09T15:17:08;12.20;;;5.38;;
81229;SDS011;70701;44.452;18.652;2023-10-09T15:19:34;39.78;;;24.60;;
81229;SDS011;70701;44.452;18.652;2023-10-09T15:21:59;65.15;;;43.67;;
81229;SDS011;70701;44.452;18.652;2023-10-09T15:24:26;82.22;;;53.88;;
81229;SDS011;70701;44.452;18.652;2023-10-09T15:26:55;52.85;;;33.78;;
81229;SDS011;70701;44.452;18.652;2023-10-09T15:29:25;26.02;;;15.88;;
81229;SDS011;70701;44.452;18.652;2023-10-09T15:31:57;14.20;;;8.20;;
81229;SDS011;70701;44.452;18.652;2023-10-09T15:34:30;20.33;;;11.20;;
81229;SDS011;70701;44.452;18.652;2023-10-09T15:36:56;41.08;;;20.85;;
81229;SDS011;70701;44.452;18.652;2023-10-09T15:39:22;49.70;;;27.42;;
81229;SDS011;70701;44.452;18.652;2023-10-09T15:41:49;43.20;;;27.40;;
81229;SDS011;70701;44.452;18.652;2023-10-09T15:44:16;58.17;;;31.88;;
81229;SDS011;70701;44.452;18.652;2023-10-09T15:46:42;76.68;;;40.85;;
81229;SDS011;70701;44.452;18.652;2023-10-09T15:49:13;32.95;;;21.00;;
81229;SDS011;70701;44.452;18.652;2023-10-09T15:51:42;27.88;;;16.27;;
81229;SDS011;70701;44.452;18.652;2023-10-09T15:54:09;26.55;;;13.63;;
81229;SDS011;70701;44.452;18.652;2023-10-09T15:56:36;32.60;;;15.52;;
81229;SDS011;70701;44.452;18.652;2023-10-09T15:59:05;35.67;;;19.08;;